Time;durP1;ratioP1;P1;durP2;ratioP2;P2;SDS_P1;SDS_P2;PMS_P1;PMS_P2;Temp;Humidity;BMP_temperature;BMP_pressure;BME280_temperature;BME280_humidity;BME280_pressure;Samples;Min_cycle;Max_cycle;Signal;HPM_P1;HPM_P2
2022/10/10 00:00:44;;;;;;;6.13;5.53;;;7.20;99.90;;;;;;5066832;28;20044;-27
2022/10/10 00:03:10;;;;;;;6.20;5.60;;;7.20;99.90;;;;;;5074890;28;20048;-28
2022/10/10 00:05:37;;;;;;;7.10;5.95;;;7.10;99.90;;;;;;5063376;28;20167;-27
2022/10/10 00:08:04;;;;;;;7.00;6.07;;;7.10;99.90;;;;;;5049695;28;20127;-31
2022/10/10 00:10:30;;;;;;;6.70;5.97;;;7.00;99.90;;;;;;5075194;28;20405;-28
2022/10/10 00:12:56;;;;;;;7.32;5.60;;;7.00;99.90;;;;;;5075101;28;20028;-28
2022/10/10 00:15:21;;;;;;;7.15;6.10;;;6.90;99.90;;;;;;5074653;28;20035;-28
2022/10/10 00:17:47;;;;;;;6.25;5.65;;;6.90;99.90;;;;;;5074708;28;20040;-27
2022/10/10 00:20:17;;;;;;;10.73;6.18;;;6.90;99.90;;;;;;5074779;28;20040;-28
2022/10/10 00:22:43;;;;;;;8.77;5.93;;;6.90;99.90;;;;;;5074648;28;20036;-28
2022/10/10 00:25:09;;;;;;;10.32;7.32;;;6.80;99.90;;;;;;5074564;28;20063;-28
2022/10/10 00:27:35;;;;;;;8.85;7.50;;;6.90;99.90;;;;;;5074779;28;20036;-28
2022/10/10 00:30:05;;;;;;;9.07;6.63;;;7.00;99.90;;;;;;5074496;28;20051;-28
2022/10/10 00:32:31;;;;;;;8.90;6.20;;;7.00;99.90;;;;;;5074662;28;20093;-28
2022/10/10 00:34:57;;;;;;;10.20;7.05;;;7.00;99.90;;;;;;5074521;28;20423;-28
2022/10/10 00:37:23;;;;;;;8.18;6.30;;;7.00;99.90;;;;;;5074789;28;20044;-28
2022/10/10 00:39:49;;;;;;;6.80;6.10;;;7.00;99.90;;;;;;5074686;28;20144;-29
2022/10/10 00:42:17;;;;;;;7.15;6.45;;;7.00;99.90;;;;;;5074510;28;20090;-28
2022/10/10 00:44:44;;;;;;;9.65;6.15;;;6.90;99.90;;;;;;5074262;28;20089;-28
2022/10/10 00:47:10;;;;;;;6.68;6.00;;;6.90;99.90;;;;;;5074556;28;20043;-27
2022/10/10 00:49:40;;;;;;;9.25;5.90;;;6.80;99.90;;;;;;5074486;28;20058;-28
2022/10/10 00:52:08;;;;;;;7.70;6.82;;;6.70;99.90;;;;;;5074436;28;20097;-30
2022/10/10 00:54:36;;;;;;;7.38;6.60;;;6.70;99.90;;;;;;5074589;28;20062;-28
2022/10/10 00:57:10;;;;;;;8.52;6.60;;;6.60;99.90;;;;;;5074512;28;20038;-29
2022/10/10 00:59:38;;;;;;;8.93;6.88;;;6.50;99.90;;;;;;5074314;28;20046;-27
2022/10/10 01:02:04;;;;;;;9.90;6.72;;;6.50;99.90;;;;;;5074405;28;20040;-28
2022/10/10 01:04:33;;;;;;;6.78;6.00;;;6.40;99.90;;;;;;5074252;28;20044;-28
2022/10/10 01:07:02;;;;;;;9.60;6.72;;;6.40;99.90;;;;;;5073990;28;20051;-27
2022/10/10 01:09:28;;;;;;;10.02;6.03;;;6.40;99.90;;;;;;5074202;28;20036;-28
2022/10/10 01:12:32;;;;;;;7.32;6.32;;;6.30;99.90;;;;;;5074463;28;20062;-28
2022/10/10 01:15:25;;;;;;;8.03;6.87;;;6.30;99.90;;;;;;5023525;28;20076;-28
2022/10/10 01:18:06;;;;;;;7.53;6.80;;;6.30;99.90;;;;;;5054366;28;20099;-28
2022/10/10 01:20:49;;;;;;;8.65;6.35;;;6.30;99.90;;;;;;5054032;28;20036;-27
2022/10/10 01:23:34;;;;;;;9.00;6.72;;;6.30;99.90;;;;;;5071670;28;20036;-28
2022/10/10 01:26:35;;;;;;;9.98;6.90;;;6.30;99.90;;;;;;5073217;28;20177;-28
2022/10/10 01:29:24;;;;;;;9.10;6.75;;;6.20;99.90;;;;;;5071830;28;20058;-28
2022/10/10 01:31:55;;;;;;;7.75;6.95;;;6.20;99.90;;;;;;5019139;28;20447;-29
2022/10/10 01:34:39;;;;;;;8.25;6.47;;;6.20;99.90;;;;;;5073785;28;20111;-28
2022/10/10 01:37:22;;;;;;;8.93;7.32;;;6.20;99.90;;;;;;5074124;28;20036;-28
2022/10/10 01:39:52;;;;;;;8.40;7.07;;;6.20;99.90;;;;;;5074153;28;20094;-28
2022/10/10 01:42:39;;;;;;;8.10;7.22;;;6.20;99.90;;;;;;5073408;28;20101;-28
2022/10/10 01:45:06;;;;;;;7.47;6.35;;;6.20;99.90;;;;;;5074009;28;20478;-28
2022/10/10 01:47:32;;;;;;;11.20;7.20;;;6.10;99.90;;;;;;5073616;28;20044;-27
2022/10/10 01:50:02;;;;;;;6.78;6.18;;;6.10;99.90;;;;;;5073542;28;20055;-31
2022/10/10 01:52:31;;;;;;;7.50;6.70;;;6.10;99.90;;;;;;5073884;28;20032;-28
2022/10/10 01:55:15;;;;;;;8.18;7.38;;;6.10;99.90;;;;;;5073810;28;20043;-27
2022/10/10 01:57:47;;;;;;;7.70;6.75;;;6.10;99.90;;;;;;5075381;28;20120;-27
2022/10/10 02:00:16;;;;;;;7.53;6.82;;;6.00;99.90;;;;;;5077697;28;20474;-27
2022/10/10 02:03:11;;;;;;;8.85;7.90;;;6.00;99.90;;;;;;5077642;28;20161;-28
2022/10/10 02:05:48;;;;;;;10.88;7.38;;;6.00;99.90;;;;;;5077714;28;20389;-28
2022/10/10 02:08:18;;;;;;;8.60;7.25;;;6.00;99.90;;;;;;5077226;28;20121;-28
2022/10/10 02:10:49;;;;;;;8.32;7.30;;;5.90;99.90;;;;;;5077445;28;20042;-27
2022/10/10 02:13:17;;;;;;;8.98;7.07;;;5.90;99.90;;;;;;5077059;28;20115;-28
2022/10/10 02:15:51;;;;;;;7.65;6.53;;;5.90;99.90;;;;;;5077193;28;20038;-28
2022/10/10 02:18:21;;;;;;;7.03;6.47;;;5.90;99.90;;;;;;5077446;28;20370;-28
2022/10/10 02:20:48;;;;;;;7.93;7.13;;;5.90;99.90;;;;;;5077586;28;20482;-28
2022/10/10 02:23:17;;;;;;;8.90;7.45;;;5.90;99.90;;;;;;5077065;28;20059;-28
2022/10/10 02:25:49;;;;;;;7.60;6.85;;;5.90;99.90;;;;;;5077191;28;20063;-28
2022/10/10 02:28:23;;;;;;;7.32;6.25;;;5.90;99.90;;;;;;5095126;28;20115;-28
2022/10/10 02:30:54;;;;;;;9.48;6.82;;;5.90;99.90;;;;;;5077310;28;20120;-29
2022/10/10 02:33:26;;;;;;;12.45;6.75;;;5.90;99.90;;;;;;5067034;28;20044;-30
2022/10/10 02:35:56;;;;;;;7.63;6.80;;;5.90;99.90;;;;;;5056709;28;20047;-29
2022/10/10 02:38:23;;;;;;;7.95;6.72;;;5.90;99.90;;;;;;5076971;28;20051;-28
2022/10/10 02:40:49;;;;;;;11.15;7.65;;;5.80;99.90;;;;;;5066248;28;20402;-27
2022/10/10 02:43:17;;;;;;;8.55;6.68;;;5.80;99.90;;;;;;5039611;28;20044;-27
2022/10/10 02:45:43;;;;;;;9.18;6.57;;;5.80;99.90;;;;;;5067428;28;20036;-27
2022/10/10 02:48:09;;;;;;;10.18;7.03;;;5.80;99.90;;;;;;5076359;28;20386;-28
2022/10/10 02:50:35;;;;;;;7.65;6.50;;;5.80;99.90;;;;;;5076431;28;20040;-28
2022/10/10 02:53:01;;;;;;;7.82;6.85;;;5.80;99.90;;;;;;5076711;28;20043;-28
2022/10/10 02:55:27;;;;;;;6.93;6.22;;;5.80;99.90;;;;;;5076401;28;20129;-29
2022/10/10 02:57:53;;;;;;;7.68;6.88;;;5.70;99.90;;;;;;5076758;28;20032;-28
2022/10/10 03:00:19;;;;;;;7.97;6.80;;;5.70;99.90;;;;;;5052958;28;20082;-30
2022/10/10 03:02:45;;;;;;;12.02;6.97;;;5.70;99.90;;;;;;5060890;28;20039;-32
2022/10/10 03:05:11;;;;;;;8.75;6.85;;;5.70;99.90;;;;;;5072388;28;20032;-30
2022/10/10 03:07:37;;;;;;;7.30;6.60;;;5.70;99.90;;;;;;5075911;28;20492;-31
2022/10/10 03:10:06;;;;;;;8.05;6.72;;;5.70;99.90;;;;;;5068072;28;20151;-32
2022/10/10 03:12:33;;;;;;;7.80;6.40;;;5.70;99.90;;;;;;5063444;28;20036;-31
2022/10/10 03:14:59;;;;;;;7.85;6.70;;;5.70;99.90;;;;;;5071292;28;20553;-31
2022/10/10 03:17:24;;;;;;;8.73;7.00;;;5.70;99.90;;;;;;5084570;28;20107;-30
2022/10/10 03:19:50;;;;;;;7.63;6.82;;;5.70;99.90;;;;;;5066097;28;20043;-30
2022/10/10 03:22:16;;;;;;;10.90;7.45;;;5.70;99.90;;;;;;5070682;28;20127;-32
2022/10/10 03:24:41;;;;;;;7.25;6.55;;;5.60;99.90;;;;;;5068857;28;20036;-30
2022/10/10 03:27:07;;;;;;;9.43;8.07;;;5.60;99.90;;;;;;5074338;28;20115;-31
2022/10/10 03:29:33;;;;;;;9.70;6.75;;;5.60;99.90;;;;;;5065062;28;20036;-32
2022/10/10 03:31:59;;;;;;;11.30;7.18;;;5.60;99.90;;;;;;5083027;28;20090;-32
2022/10/10 03:34:24;;;;;;;7.20;6.50;;;5.60;99.90;;;;;;5073937;28;20069;-32
2022/10/10 03:36:50;;;;;;;8.63;7.35;;;5.50;99.90;;;;;;5061264;28;20117;-33
2022/10/10 03:39:16;;;;;;;7.97;7.03;;;5.60;99.90;;;;;;5051253;28;20085;-31
2022/10/10 03:41:42;;;;;;;8.75;7.85;;;5.50;99.90;;;;;;5082200;28;20478;-32
2022/10/10 03:44:07;;;;;;;11.60;6.63;;;5.50;99.90;;;;;;5074799;28;20459;-35
2022/10/10 03:46:33;;;;;;;7.53;6.75;;;5.50;99.90;;;;;;5075325;28;20124;-31
2022/10/10 03:48:59;;;;;;;9.27;7.00;;;5.50;99.90;;;;;;5074478;28;20395;-31
2022/10/10 03:51:24;;;;;;;9.38;7.82;;;5.50;99.90;;;;;;5075095;28;20047;-29
2022/10/10 03:53:50;;;;;;;8.38;7.07;;;5.50;99.90;;;;;;5072405;28;20069;-31
2022/10/10 03:56:16;;;;;;;7.93;6.95;;;5.50;99.90;;;;;;5075295;28;20036;-33
2022/10/10 03:58:41;;;;;;;8.60;7.10;;;5.50;99.90;;;;;;5071268;28;20040;-34
2022/10/10 04:01:07;;;;;;;10.45;7.88;;;5.60;99.90;;;;;;5062858;28;20035;-32
2022/10/10 04:03:33;;;;;;;8.25;6.93;;;5.50;99.90;;;;;;5073845;28;20044;-34
2022/10/10 04:05:59;;;;;;;11.57;7.32;;;5.60;99.90;;;;;;5070167;28;20044;-34
2022/10/10 04:08:24;;;;;;;9.23;7.68;;;5.50;99.90;;;;;;5074141;28;20040;-31
2022/10/10 04:10:51;;;;;;;8.73;6.55;;;5.50;99.90;;;;;;5070912;28;20043;-33
2022/10/10 04:13:17;;;;;;;10.20;7.60;;;5.50;99.90;;;;;;5063830;28;20044;-33
2022/10/10 04:15:43;;;;;;;10.23;8.40;;;5.50;99.90;;;;;;5070622;28;20040;-32
2022/10/10 04:18:09;;;;;;;9.80;7.78;;;5.50;99.90;;;;;;5068567;28;20485;-30
2022/10/10 04:20:35;;;;;;;10.52;8.40;;;5.50;99.90;;;;;;5060794;28;20078;-34
2022/10/10 04:23:01;;;;;;;8.02;6.65;;;5.50;99.90;;;;;;5050482;28;20486;-31
2022/10/10 04:25:26;;;;;;;8.15;7.25;;;5.50;99.90;;;;;;5047365;28;20040;-30
2022/10/10 04:27:52;;;;;;;8.57;7.45;;;5.40;99.90;;;;;;5062661;28;20122;-34
2022/10/10 04:30:18;;;;;;;8.40;7.55;;;5.40;99.90;;;;;;5070900;28;20032;-33
2022/10/10 04:32:44;;;;;;;10.60;7.85;;;5.40;99.90;;;;;;5070312;28;20032;-32
2022/10/10 04:35:10;;;;;;;9.60;7.88;;;5.40;99.90;;;;;;5070838;28;20038;-31
2022/10/10 04:37:36;;;;;;;9.20;7.82;;;5.30;99.90;;;;;;5066967;28;20035;-34
2022/10/10 04:40:03;;;;;;;8.82;7.10;;;5.30;99.90;;;;;;5059051;28;20102;-30
2022/10/10 04:42:28;;;;;;;10.77;7.47;;;5.30;99.90;;;;;;5067363;28;20094;-32
2022/10/10 04:44:54;;;;;;;9.15;7.65;;;5.30;99.90;;;;;;5070065;28;20040;-34
2022/10/10 04:47:20;;;;;;;9.32;8.32;;;5.20;99.90;;;;;;5062916;28;20040;-33
2022/10/10 04:49:46;;;;;;;8.57;7.63;;;5.20;99.90;;;;;;5061658;28;20471;-33
2022/10/10 04:52:12;;;;;;;8.80;7.55;;;5.20;99.90;;;;;;5067006;28;20039;-33
2022/10/10 04:54:37;;;;;;;7.97;7.18;;;5.20;99.90;;;;;;5070340;28;20031;-32
2022/10/10 04:57:05;;;;;;;9.07;7.40;;;5.20;99.90;;;;;;5079803;28;20109;-32
2022/10/10 04:59:30;;;;;;;8.23;6.85;;;5.20;99.90;;;;;;5061121;28;20383;-32
2022/10/10 05:01:56;;;;;;;11.13;8.02;;;5.20;99.90;;;;;;5061369;28;20043;-32
2022/10/10 05:04:22;;;;;;;8.52;7.63;;;5.20;99.90;;;;;;5072256;28;20508;-33
2022/10/10 05:06:48;;;;;;;8.63;7.68;;;5.20;99.90;;;;;;5072956;28;20043;-32
2022/10/10 05:09:13;;;;;;;10.48;8.50;;;5.20;99.90;;;;;;5062623;28;20529;-33
2022/10/10 05:11:39;;;;;;;7.75;6.95;;;5.20;99.90;;;;;;5063537;28;20032;-33
2022/10/10 05:14:05;;;;;;;10.88;7.75;;;5.20;99.90;;;;;;5065602;28;20059;-31
2022/10/10 05:16:32;;;;;;;11.27;7.68;;;5.20;99.90;;;;;;5063028;28;20043;-35
2022/10/10 05:18:57;;;;;;;9.02;7.80;;;5.20;99.90;;;;;;5063768;28;20097;-32
2022/10/10 05:21:23;;;;;;;10.80;8.05;;;5.20;99.90;;;;;;5060074;28;20036;-30
2022/10/10 05:23:49;;;;;;;9.05;8.05;;;5.20;99.90;;;;;;5067883;28;20044;-33
2022/10/10 05:26:15;;;;;;;12.40;8.23;;;5.20;99.90;;;;;;5063902;28;20548;-35
2022/10/10 05:28:41;;;;;;;12.32;9.13;;;5.10;99.90;;;;;;5046028;28;20094;-32
2022/10/10 05:31:06;;;;;;;9.32;8.32;;;5.10;99.90;;;;;;5061732;28;20032;-33
2022/10/10 05:33:33;;;;;;;9.20;7.47;;;5.10;99.90;;;;;;5073500;28;20032;-30
2022/10/10 05:36:05;;;;;;;9.02;7.90;;;5.10;99.90;;;;;;5063664;28;20115;-35
2022/10/10 05:38:31;;;;;;;11.02;7.93;;;5.10;99.90;;;;;;5076719;28;20039;-33
2022/10/10 05:40:56;;;;;;;12.70;8.93;;;5.10;99.90;;;;;;5077036;28;20048;-33
2022/10/10 05:43:22;;;;;;;10.02;8.30;;;5.10;99.90;;;;;;5074402;28;20044;-31
2022/10/10 05:45:48;;;;;;;10.35;7.97;;;5.00;99.90;;;;;;5066899;28;20102;-33
2022/10/10 05:48:14;;;;;;;11.40;7.82;;;5.00;99.90;;;;;;5066979;28;20033;-31
2022/10/10 05:50:45;;;;;;;10.52;8.45;;;5.00;99.90;;;;;;5076742;28;20039;-34
2022/10/10 05:53:11;;;;;;;9.15;7.90;;;5.00;99.90;;;;;;5068941;28;20037;-32
2022/10/10 05:55:37;;;;;;;9.48;7.47;;;5.00;99.90;;;;;;5072549;28;20123;-40
2022/10/10 05:58:03;;;;;;;11.35;7.93;;;5.00;99.90;;;;;;5068890;28;20047;-33
2022/10/10 06:00:30;;;;;;;11.38;8.82;;;5.00;99.90;;;;;;5073770;28;20536;-34
2022/10/10 06:02:57;;;;;;;11.70;9.13;;;5.00;99.90;;;;;;5071380;28;20032;-33
2022/10/10 06:05:23;;;;;;;11.13;8.45;;;5.00;99.90;;;;;;5051654;28;20037;-30
2022/10/10 06:07:49;;;;;;;8.77;7.97;;;4.90;99.90;;;;;;5072351;28;20047;-33
2022/10/10 06:10:15;;;;;;;12.15;9.88;;;5.00;99.90;;;;;;5073795;28;20036;-32
2022/10/10 06:12:40;;;;;;;12.63;8.68;;;5.00;99.90;;;;;;5070876;28;20028;-32
2022/10/10 06:15:07;;;;;;;9.48;8.18;;;5.00;99.90;;;;;;5054715;28;20033;-33
2022/10/10 06:17:32;;;;;;;12.50;8.75;;;5.00;99.90;;;;;;5082121;28;20039;-33
2022/10/10 06:19:58;;;;;;;11.50;8.32;;;5.00;99.90;;;;;;5074857;28;20040;-31
2022/10/10 06:22:24;;;;;;;12.27;8.88;;;5.00;99.90;;;;;;5074370;28;20040;-32
2022/10/10 06:24:50;;;;;;;12.20;9.18;;;5.10;99.90;;;;;;5073930;28;20115;-31
2022/10/10 06:27:15;;;;;;;9.75;8.75;;;5.10;99.90;;;;;;5073344;28;20032;-32
2022/10/10 06:29:41;;;;;;;13.10;8.98;;;5.20;99.90;;;;;;5076665;28;20048;-32
2022/10/10 06:32:07;;;;;;;11.57;9.30;;;5.20;99.90;;;;;;5064675;28;20452;-31
2022/10/10 06:34:32;;;;;;;11.10;8.77;;;5.30;99.90;;;;;;5054165;28;20173;-33
2022/10/10 06:36:58;;;;;;;13.52;9.30;;;5.30;99.90;;;;;;5076646;28;20474;-32
2022/10/10 06:39:24;;;;;;;13.52;10.13;;;5.40;99.90;;;;;;5073017;28;20036;-32
2022/10/10 06:41:50;;;;;;;15.43;9.73;;;5.50;99.90;;;;;;5074684;28;20050;-33
2022/10/10 06:44:16;;;;;;;12.30;9.55;;;5.60;99.90;;;;;;5073251;28;20040;-32
2022/10/10 06:46:42;;;;;;;11.50;8.95;;;5.70;99.90;;;;;;5066161;28;20044;-32
2022/10/10 06:49:09;;;;;;;14.13;9.90;;;5.80;99.90;;;;;;5065987;28;20083;-35
2022/10/10 06:51:34;;;;;;;13.32;9.93;;;6.00;99.90;;;;;;5068245;28;20102;-33
2022/10/10 06:54:00;;;;;;;14.63;10.35;;;6.10;99.90;;;;;;5071099;28;20515;-34
2022/10/10 06:56:26;;;;;;;15.32;10.98;;;6.10;99.90;;;;;;5069180;28;20032;-33
2022/10/10 06:58:52;;;;;;;17.73;10.02;;;6.40;99.90;;;;;;5070019;28;20564;-32
2022/10/10 07:01:20;;;;;;;14.30;9.65;;;6.60;99.90;;;;;;5072662;28;20039;-31
2022/10/10 07:03:46;;;;;;;12.85;9.93;;;6.80;99.90;;;;;;5070006;28;20043;-30
2022/10/10 07:06:12;;;;;;;13.68;8.70;;;6.90;99.90;;;;;;5082710;28;20036;-32
2022/10/10 07:08:39;;;;;;;13.75;10.25;;;7.00;99.90;;;;;;5065285;28;20032;-34
2022/10/10 07:11:06;;;;;;;15.25;9.88;;;7.10;99.90;;;;;;5051366;28;20050;-31
2022/10/10 07:13:33;;;;;;;13.45;9.60;;;7.30;99.90;;;;;;5068682;28;20035;-31
2022/10/10 07:15:59;;;;;;;15.88;10.05;;;7.50;99.90;;;;;;5074592;28;20146;-30
2022/10/10 07:18:25;;;;;;;14.75;10.52;;;7.60;99.90;;;;;;5070016;28;20035;-31
2022/10/10 07:20:58;;;;;;;12.52;9.13;;;7.70;99.90;;;;;;5066161;28;20044;-34
2022/10/10 07:23:25;;;;;;;13.48;9.25;;;7.90;99.90;;;;;;5068782;28;20059;-32
2022/10/10 07:25:51;;;;;;;12.93;9.40;;;8.10;99.90;;;;;;5075471;28;20035;-30
2022/10/10 07:28:18;;;;;;;13.63;8.80;;;8.20;99.90;;;;;;5090010;28;20405;-33
2022/10/10 07:30:45;;;;;;;10.63;8.75;;;8.30;99.90;;;;;;5094717;28;20032;-33
2022/10/10 07:33:14;;;;;;;13.63;8.80;;;8.40;99.90;;;;;;5065374;28;20037;-32
2022/10/10 07:35:40;;;;;;;10.30;8.38;;;8.60;99.90;;;;;;5056150;28;20127;-34
2022/10/10 07:38:06;;;;;;;14.25;8.82;;;8.70;99.90;;;;;;5072089;28;20553;-33
2022/10/10 07:40:32;;;;;;;11.77;8.50;;;8.80;99.90;;;;;;5072785;28;20371;-32
2022/10/10 07:42:58;;;;;;;11.95;8.48;;;9.00;99.90;;;;;;5075719;28;20432;-33
2022/10/10 07:45:24;;;;;;;9.13;8.18;;;9.10;99.90;;;;;;5074459;28;20073;-32
2022/10/10 07:47:53;;;;;;;12.65;9.40;;;9.20;99.90;;;;;;5064326;28;20037;-31
2022/10/10 07:50:19;;;;;;;10.57;7.95;;;9.30;99.90;;;;;;5084238;28;20024;-33
2022/10/10 07:52:45;;;;;;;12.07;8.57;;;9.40;99.90;;;;;;5070177;28;20534;-33
2022/10/10 07:55:10;;;;;;;12.60;8.80;;;9.60;99.90;;;;;;5061215;28;20052;-36
2022/10/10 07:57:36;;;;;;;11.95;8.60;;;9.80;99.90;;;;;;5053652;28;20036;-33
2022/10/10 08:00:08;;;;;;;11.13;8.30;;;10.10;99.90;;;;;;5068128;28;20063;-35
2022/10/10 08:02:33;;;;;;;11.10;8.35;;;10.60;99.90;;;;;;5068095;28;20101;-34
2022/10/10 08:04:59;;;;;;;11.27;7.72;;;10.90;99.90;;;;;;5067649;28;20032;-33
2022/10/10 08:07:25;;;;;;;9.75;8.20;;;11.20;99.90;;;;;;5070847;28;20044;-33
2022/10/10 08:09:51;;;;;;;8.68;7.78;;;11.50;99.90;;;;;;5070938;28;20094;-33
2022/10/10 08:12:16;;;;;;;9.80;7.90;;;11.60;99.90;;;;;;5067888;28;20043;-35
2022/10/10 08:14:42;;;;;;;8.80;7.20;;;11.80;99.90;;;;;;5072011;28;20077;-35
2022/10/10 08:17:08;;;;;;;10.43;7.72;;;12.10;99.90;;;;;;5075883;28;20110;-30
2022/10/10 08:19:34;;;;;;;10.40;7.72;;;12.30;99.90;;;;;;5075886;28;20043;-31
2022/10/10 08:21:59;;;;;;;11.82;7.20;;;12.40;99.90;;;;;;5072430;28;20044;-31
2022/10/10 08:24:26;;;;;;;8.95;6.78;;;12.60;99.90;;;;;;5058465;28;20078;-29
2022/10/10 08:26:51;;;;;;;9.57;7.22;;;12.70;99.90;;;;;;5075297;28;20040;-30
2022/10/10 08:29:17;;;;;;;9.40;7.80;;;12.80;99.90;;;;;;5093218;28;20043;-31
2022/10/10 08:31:43;;;;;;;9.05;7.32;;;12.90;99.90;;;;;;5058834;28;20217;-31
2022/10/10 08:34:09;;;;;;;8.75;7.45;;;13.00;99.90;;;;;;5064276;28;20031;-31
2022/10/10 08:36:35;;;;;;;10.18;7.35;;;13.10;99.90;;;;;;5058489;28;20047;-31
2022/10/10 08:39:02;;;;;;;11.60;6.88;;;13.30;99.90;;;;;;5061839;28;20045;-30
2022/10/10 08:41:46;;;;;;;8.20;6.82;;;13.70;99.90;;;;;;5075601;28;20062;-30
2022/10/10 08:44:20;;;;;;;8.52;7.25;;;13.80;99.90;;;;;;5074607;28;20047;-30
2022/10/10 08:47:02;;;;;;;8.10;6.88;;;13.80;99.90;;;;;;5068266;28;20115;-31
2022/10/10 08:49:37;;;;;;;9.70;6.80;;;13.90;99.90;;;;;;5074570;28;20068;-29
2022/10/10 08:52:24;;;;;;;8.88;7.40;;;14.00;99.90;;;;;;5063626;28;20041;-32
2022/10/10 08:54:52;;;;;;;10.10;7.00;;;14.00;99.90;;;;;;5062214;28;20500;-30
2022/10/10 08:57:48;;;;;;;8.27;7.18;;;13.90;99.90;;;;;;5075188;28;20277;-30
2022/10/10 09:00:17;;;;;;;7.88;7.07;;;13.70;99.90;;;;;;5074776;28;20051;-31
2022/10/10 09:02:50;;;;;;;12.73;7.38;;;13.60;99.90;;;;;;5072407;28;20048;-30
2022/10/10 09:05:20;;;;;;;8.52;6.82;;;13.60;99.90;;;;;;5071206;28;20111;-31
2022/10/10 09:08:04;;;;;;;9.55;6.93;;;13.90;99.90;;;;;;5066247;28;20559;-32
2022/10/10 09:10:53;;;;;;;10.00;7.55;;;14.30;99.90;;;;;;5054384;28;20045;-31
2022/10/10 09:13:41;;;;;;;9.40;6.88;;;14.60;99.90;;;;;;5059459;28;20031;-31
2022/10/10 09:16:34;;;;;;;11.98;7.10;;;14.80;99.90;;;;;;5062601;28;20044;-30
2022/10/10 09:19:00;;;;;;;9.50;7.25;;;14.70;99.90;;;;;;5063048;28;20517;-32
2022/10/10 09:21:32;;;;;;;8.75;7.35;;;14.60;99.90;;;;;;5072607;28;20102;-32
2022/10/10 09:24:22;;;;;;;9.15;7.38;;;14.60;99.90;;;;;;5091160;28;20040;-31
2022/10/10 09:26:52;;;;;;;9.73;7.00;;;14.70;99.90;;;;;;5073936;28;20557;-31
2022/10/10 09:29:46;;;;;;;9.35;7.00;;;15.20;99.90;;;;;;5057697;28;20040;-31
2022/10/10 09:32:21;;;;;;;8.02;6.50;;;16.00;99.90;;;;;;5074002;28;20397;-31
2022/10/10 09:35:04;;;;;;;7.88;6.70;;;16.90;99.90;;;;;;5074810;28;20549;-31
2022/10/10 09:37:36;;;;;;;11.38;6.85;;;17.50;99.90;;;;;;5074486;28;20503;-32
2022/10/10 09:40:26;;;;;;;8.55;6.50;;;17.70;99.90;;;;;;5074099;28;20036;-32
2022/10/10 09:42:52;;;;;;;11.35;7.15;;;17.80;99.90;;;;;;5074093;28;20040;-31
2022/10/10 09:45:25;;;;;;;9.82;6.40;;;17.80;99.90;;;;;;5064173;28;20040;-31
2022/10/10 09:47:53;;;;;;;7.90;6.28;;;18.00;99.90;;;;;;5074372;28;20113;-31
2022/10/10 09:50:20;;;;;;;9.85;6.53;;;18.10;99.90;;;;;;5074500;28;20044;-32
2022/10/10 09:52:46;;;;;;;7.70;6.28;;;18.50;99.90;;;;;;5074088;28;20044;-31
2022/10/10 09:55:27;;;;;;;7.10;6.40;;;19.20;99.90;;;;;;5074149;28;20043;-31
2022/10/10 09:57:56;;;;;;;8.05;6.03;;;19.80;99.90;;;;;;5074294;28;20173;-31
2022/10/10 10:00:25;;;;;;;8.00;6.20;;;20.20;99.90;;;;;;5057322;28;20040;-31
2022/10/10 10:03:03;;;;;;;9.18;6.93;;;20.60;99.90;;;;;;5070948;28;20040;-32
2022/10/10 10:05:29;;;;;;;8.60;6.68;;;20.50;99.90;;;;;;5057026;28;20047;-32
2022/10/10 10:07:55;;;;;;;7.32;6.55;;;20.20;99.90;;;;;;5092123;28;20560;-30
2022/10/10 10:10:26;;;;;;;10.23;6.38;;;20.10;99.90;;;;;;5074417;28;20044;-29
2022/10/10 10:12:53;;;;;;;8.57;6.80;;;20.00;99.90;;;;;;5074276;28;20094;-29
2022/10/10 10:15:25;;;;;;;7.53;6.70;;;20.00;99.90;;;;;;5074048;28;20250;-29
2022/10/10 10:18:19;;;;;;;7.75;6.95;;;19.90;99.90;;;;;;5074505;28;20032;-29
2022/10/10 10:21:13;;;;;;;9.40;6.70;;;20.00;99.90;;;;;;5078110;28;20036;-31
2022/10/10 10:23:49;;;;;;;9.02;6.80;;;20.30;99.90;;;;;;5076814;28;20044;-29
2022/10/10 10:26:32;;;;;;;7.43;6.40;;;20.30;99.90;;;;;;5077737;28;20469;-30
2022/10/10 10:28:58;;;;;;;7.90;6.20;;;20.30;99.90;;;;;;5057573;28;20043;-29
2022/10/10 10:31:36;;;;;;;9.10;6.50;;;20.10;99.90;;;;;;5066206;28;20032;-31
2022/10/10 10:34:40;;;;;;;10.73;6.93;;;19.90;99.90;;;;;;5062690;28;20036;-30
2022/10/10 10:37:24;;;;;;;7.33;6.00;;;19.80;99.90;;;;;;5070698;28;20085;-29
2022/10/10 10:40:11;;;;;;;10.52;6.82;;;19.60;99.90;;;;;;5060791;28;20286;-29
2022/10/10 10:43:08;;;;;;;9.00;6.47;;;19.30;99.90;;;;;;5077480;28;20490;-28
2022/10/10 10:45:52;;;;;;;7.70;6.45;;;19.20;99.90;;;;;;5092532;28;20110;-30
2022/10/10 10:48:28;;;;;;;9.10;6.38;;;19.00;99.90;;;;;;5059805;28;20123;-29
2022/10/10 10:51:20;;;;;;;8.77;6.63;;;19.10;99.90;;;;;;5040830;28;20110;-30
2022/10/10 10:53:58;;;;;;;7.50;6.75;;;19.30;99.90;;;;;;5041642;28;20371;-30
2022/10/10 10:56:54;;;;;;;7.70;6.82;;;19.30;99.90;;;;;;5058218;28;20060;-30
2022/10/10 10:59:26;;;;;;;10.75;6.97;;;19.40;99.90;;;;;;5073807;28;20036;-30
2022/10/10 11:01:51;;;;;;;9.00;6.10;;;19.20;99.90;;;;;;5078113;28;20109;-30
2022/10/10 11:04:44;;;;;;;7.65;5.97;;;19.10;99.90;;;;;;5060613;28;20044;-30
2022/10/10 11:07:18;;;;;;;7.90;6.50;;;19.10;99.90;;;;;;5073677;28;20040;-31
2022/10/10 11:09:56;;;;;;;8.82;7.22;;;18.80;99.90;;;;;;5076792;28;20520;-30
2022/10/10 11:12:47;;;;;;;9.65;6.25;;;18.50;99.90;;;;;;5077237;28;20125;-30
2022/10/10 11:15:27;;;;;;;8.38;6.45;;;18.20;99.90;;;;;;5077248;28;20174;-30
2022/10/10 11:18:18;;;;;;;9.20;6.80;;;17.90;99.90;;;;;;5076886;28;20032;-30
2022/10/10 11:20:51;;;;;;;7.10;6.40;;;17.70;99.90;;;;;;5077470;28;20466;-30
2022/10/10 11:23:41;;;;;;;11.10;6.73;;;17.70;99.90;;;;;;5076473;28;20043;-29
2022/10/10 11:26:27;;;;;;;8.80;6.78;;;17.70;99.90;;;;;;5075379;28;20115;-30
2022/10/10 11:29:11;;;;;;;9.13;5.97;;;17.50;99.90;;;;;;5056096;28;20090;-30
2022/10/10 11:31:51;;;;;;;7.88;6.07;;;17.60;99.90;;;;;;5056397;28;20044;-30
2022/10/10 11:34:41;;;;;;;6.57;5.53;;;17.50;99.90;;;;;;5066243;28;20063;-29
2022/10/10 11:37:14;;;;;;;9.55;6.22;;;17.60;99.90;;;;;;5076526;28;20032;-30
2022/10/10 11:39:53;;;;;;;8.07;5.93;;;17.50;99.90;;;;;;5076719;28;20040;-32
2022/10/10 11:42:40;;;;;;;8.32;6.35;;;17.50;99.90;;;;;;5060180;28;20405;-30
2022/10/10 11:45:15;;;;;;;7.15;5.90;;;17.30;99.90;;;;;;5076980;28;20075;-29
2022/10/10 11:47:50;;;;;;;8.30;6.60;;;17.40;99.90;;;;;;5095143;28;20389;-29
2022/10/10 11:50:30;;;;;;;9.10;6.55;;;17.50;99.90;;;;;;5059810;28;20040;-30
2022/10/10 11:53:10;;;;;;;7.82;6.05;;;17.50;99.90;;;;;;5094671;28;20040;-32
2022/10/10 11:55:56;;;;;;;9.68;7.03;;;17.40;99.90;;;;;;5075503;28;20059;-30
2022/10/10 11:58:22;;;;;;;7.55;6.07;;;17.20;99.90;;;;;;5075219;28;20055;-30
2022/10/10 12:00:53;;;;;;;8.82;6.15;;;17.10;99.90;;;;;;5076225;28;20044;-29
2022/10/10 12:03:19;;;;;;;12.05;6.30;;;16.90;99.90;;;;;;5059760;28;20383;-29
2022/10/10 12:05:55;;;;;;;7.82;6.85;;;16.70;99.90;;;;;;5093684;28;20043;-30
2022/10/10 12:08:52;;;;;;;9.90;6.55;;;16.60;99.90;;;;;;5075500;28;20036;-31
2022/10/10 12:11:23;;;;;;;6.82;6.13;;;16.40;99.90;;;;;;4985613;28;20058;-30
2022/10/10 12:13:58;;;;;;;8.57;6.50;;;16.30;99.90;;;;;;5072220;28;20115;-30
2022/10/10 12:16:27;;;;;;;7.93;6.60;;;16.20;99.90;;;;;;5093613;28;20040;-30
2022/10/10 12:19:04;;;;;;;9.65;7.03;;;16.10;99.90;;;;;;5075359;28;20028;-31
2022/10/10 12:21:31;;;;;;;10.30;7.65;;;16.00;99.90;;;;;;5058839;28;20131;-29
2022/10/10 12:24:03;;;;;;;9.38;7.18;;;16.00;99.90;;;;;;5075301;28;20039;-29
2022/10/10 12:26:55;;;;;;;7.63;6.53;;;16.00;99.90;;;;;;5075325;28;20040;-29
2022/10/10 12:29:42;;;;;;;11.27;6.40;;;16.00;99.90;;;;;;5049812;28;20048;-30
2022/10/10 12:32:13;;;;;;;8.23;6.57;;;16.00;99.90;;;;;;5059183;28;20127;-29
2022/10/10 12:34:56;;;;;;;8.15;6.60;;;16.10;99.90;;;;;;5055305;28;20040;-30
2022/10/10 12:37:34;;;;;;;8.75;6.35;;;16.20;99.90;;;;;;5072778;28;20028;-29
2022/10/10 12:40:06;;;;;;;11.32;6.65;;;16.20;99.90;;;;;;5075336;28;20050;-30
2022/10/10 12:42:58;;;;;;;9.05;6.88;;;16.20;99.90;;;;;;5074520;28;20556;-30
2022/10/10 12:45:30;;;;;;;7.80;6.18;;;16.10;99.90;;;;;;5075343;28;20607;-30
2022/10/10 12:48:15;;;;;;;9.05;6.47;;;16.00;99.90;;;;;;5075599;28;20040;-30
2022/10/10 12:50:42;;;;;;;7.57;6.78;;;16.00;99.90;;;;;;5075802;28;20147;-30
2022/10/10 12:53:11;;;;;;;10.50;6.85;;;16.10;99.90;;;;;;5075255;28;20036;-30
2022/10/10 12:55:43;;;;;;;8.23;6.55;;;16.10;99.90;;;;;;5075278;28;20443;-30
2022/10/10 12:58:29;;;;;;;9.38;7.10;;;16.10;99.90;;;;;;5075110;28;20044;-30
2022/10/10 13:00:58;;;;;;;11.02;6.28;;;16.00;99.90;;;;;;5074985;28;20075;-30
2022/10/10 13:03:33;;;;;;;11.68;7.43;;;15.90;99.90;;;;;;5075152;28;20073;-30
2022/10/10 13:06:06;;;;;;;10.35;8.00;;;15.90;99.90;;;;;;5075158;28;20040;-30
2022/10/10 13:08:36;;;;;;;10.13;8.10;;;15.80;99.90;;;;;;5075134;28;20097;-29
2022/10/10 13:11:13;;;;;;;13.35;8.10;;;15.70;99.90;;;;;;5075345;28;20036;-31